createdAt,value
2022-10-07T00:01:11.431Z,98706.70
2022-10-07T00:03:40.556Z,98702.23
2022-10-07T00:06:13.617Z,98698.88
2022-10-07T00:08:47.394Z,98697.64
2022-10-07T00:11:18.761Z,98697.20
2022-10-07T00:13:47.909Z,98699.20
2022-10-07T00:16:17.624Z,98696.23
2022-10-07T00:18:46.145Z,98693.33
2022-10-07T00:21:16.527Z,98689.86
2022-10-07T00:23:46.389Z,98692.50
2022-10-07T00:26:20.669Z,98698.64
2022-10-07T00:28:49.400Z,98700.85
2022-10-07T00:31:24.644Z,98696.00
2022-10-07T00:33:54.235Z,98697.23
2022-10-07T00:36:29.503Z,98696.30
2022-10-07T00:39:03.755Z,98695.70
2022-10-07T00:41:52.760Z,98695.46
2022-10-07T00:44:42.134Z,98697.34
2022-10-07T00:47:13.328Z,98697.21
2022-10-07T00:49:54.287Z,98693.64
2022-10-07T00:52:26.420Z,98689.09
2022-10-07T00:54:57.314Z,98686.08
2022-10-07T00:57:29.530Z,98684.55
2022-10-07T00:59:57.865Z,98683.80
2022-10-07T01:02:27.499Z,98684.01
2022-10-07T01:04:59.079Z,98685.61
2022-10-07T01:07:28.385Z,98689.38
2022-10-07T01:09:59.617Z,98690.92
2022-10-07T01:12:55.640Z,98694.19
2022-10-07T01:15:30.474Z,98696.51
2022-10-07T01:18:12.670Z,98690.84
2022-10-07T01:20:46.926Z,98682.98
2022-10-07T01:23:44.558Z,98681.29
2022-10-07T01:26:24.710Z,98679.54
2022-10-07T01:28:59.237Z,98677.96
2022-10-07T01:31:44.409Z,98675.27
2022-10-07T01:34:14.736Z,98671.86
2022-10-07T01:36:51.996Z,98675.13
2022-10-07T01:39:26.545Z,98673.55
2022-10-07T01:41:54.775Z,98674.24
2022-10-07T01:44:23.314Z,98668.27
2022-10-07T01:46:51.375Z,98664.00
2022-10-07T01:49:19.344Z,98665.18
2022-10-07T01:52:03.699Z,98668.29
2022-10-07T01:54:50.918Z,98667.45
2022-10-07T01:57:59.337Z,98668.63
2022-10-07T02:00:28.130Z,98671.04
2022-10-07T02:03:34.101Z,98666.02
2022-10-07T02:06:20.079Z,98664.95
2022-10-07T02:08:55.297Z,98666.44
2022-10-07T02:11:30.281Z,98664.16
2022-10-07T02:14:23.411Z,98660.98
2022-10-07T02:16:57.015Z,98662.20
2022-10-07T02:19:31.740Z,98666.77
2022-10-07T02:22:03.038Z,98668.67
2022-10-07T02:24:35.654Z,98671.32
2022-10-07T02:27:10.018Z,98673.89
2022-10-07T02:29:41.130Z,98678.61
2022-10-07T02:32:13.716Z,98681.08
2022-10-07T02:34:46.185Z,98676.91
2022-10-07T02:37:19.852Z,98672.55
2022-10-07T02:39:48.778Z,98673.35
2022-10-07T02:42:28.216Z,98675.94
2022-10-07T02:45:05.426Z,98676.08
2022-10-07T02:47:51.192Z,98681.13
2022-10-07T02:50:23.838Z,98678.30
2022-10-07T02:52:55.887Z,98679.38
2022-10-07T02:55:27.793Z,98675.19
2022-10-07T02:58:00.507Z,98674.08
2022-10-07T03:00:31.005Z,98672.85
2022-10-07T03:03:02.625Z,98670.59
2022-10-07T03:05:54.799Z,98673.95
2022-10-07T03:08:24.644Z,98674.03
2022-10-07T03:10:52.788Z,98676.02
2022-10-07T03:13:20.820Z,98674.38
2022-10-07T03:15:52.284Z,98674.55
2022-10-07T03:18:28.371Z,98677.58
2022-10-07T03:21:22.860Z,98675.92
2022-10-07T03:23:54.209Z,98675.71
2022-10-07T03:26:24.653Z,98677.15
2022-10-07T03:28:53.729Z,98674.44
2022-10-07T03:31:22.015Z,98666.70
2022-10-07T03:33:52.150Z,98661.48
2022-10-07T03:36:20.835Z,98660.70
2022-10-07T03:38:49.910Z,98664.02
2022-10-07T03:41:19.432Z,98661.30
2022-10-07T03:43:48.818Z,98662.85
2022-10-07T03:46:19.919Z,98661.40
2022-10-07T03:48:48.161Z,98661.61
2022-10-07T03:51:16.424Z,98659.89
2022-10-07T03:53:44.389Z,98660.02
2022-10-07T03:56:12.870Z,98659.92
2022-10-07T03:58:42.476Z,98660.58
2022-10-07T04:01:16.714Z,98663.73
2022-10-07T04:03:50.266Z,98666.47
2022-10-07T04:06:19.493Z,98667.77
2022-10-07T04:08:51.588Z,98669.55
2022-10-07T04:11:19.933Z,98664.90
2022-10-07T04:13:48.518Z,98665.22
2022-10-07T04:16:20.033Z,98661.12
2022-10-07T04:18:48.754Z,98656.27
2022-10-07T04:21:17.163Z,98653.10
2022-10-07T04:23:45.209Z,98653.38
2022-10-07T04:26:13.585Z,98659.51
2022-10-07T04:28:44.890Z,98659.89
2022-10-07T04:31:15.189Z,98653.33
2022-10-07T04:33:46.624Z,98651.11
2022-10-07T04:36:19.698Z,98654.42
2022-10-07T04:38:54.631Z,98653.77
2022-10-07T04:41:26.439Z,98651.41
2022-10-07T04:43:57.883Z,98654.48
2022-10-07T04:46:28.560Z,98654.37
2022-10-07T04:49:05.250Z,98651.43
2022-10-07T04:51:33.626Z,98648.42
2022-10-07T04:54:02.097Z,98645.27
2022-10-07T04:56:34.684Z,98643.75
2022-10-07T04:59:05.215Z,98647.50
2022-10-07T05:01:33.503Z,98651.77
2022-10-07T05:04:01.468Z,98650.19
2022-10-07T05:06:30.148Z,98653.23
2022-10-07T05:08:58.052Z,98657.77
2022-10-07T05:11:26.533Z,98659.10
2022-10-07T05:14:02.179Z,98658.27
2022-10-07T05:16:31.248Z,98657.66
2022-10-07T05:18:59.957Z,98657.67
2022-10-07T05:21:27.997Z,98661.37
2022-10-07T05:23:56.172Z,98661.33
2022-10-07T05:26:28.032Z,98658.05
2022-10-07T05:28:58.596Z,98654.66
2022-10-07T05:31:31.832Z,98654.92
2022-10-07T05:34:02.283Z,98660.02
2022-10-07T05:36:30.564Z,98659.79
2022-10-07T05:39:00.683Z,98657.75
2022-10-07T05:41:45.636Z,98656.82
2022-10-07T05:44:15.713Z,98660.67
2022-10-07T05:46:44.046Z,98662.69
2022-10-07T05:49:12.328Z,98662.69
2022-10-07T05:51:41.726Z,98666.20
2022-10-07T05:54:09.880Z,98671.26
2022-10-07T05:56:41.455Z,98670.93
2022-10-07T05:59:10.529Z,98671.48
2022-10-07T06:01:43.027Z,98674.91
2022-10-07T06:04:15.010Z,98676.38
2022-10-07T06:06:45.291Z,98676.98
2022-10-07T06:09:32.653Z,98676.00
2022-10-07T06:12:22.850Z,98675.77
2022-10-07T06:14:51.636Z,98675.55
2022-10-07T06:17:19.518Z,98673.91
2022-10-07T06:19:48.086Z,98672.48
2022-10-07T06:22:16.966Z,98671.55
2022-10-07T06:24:45.595Z,98676.29
2022-10-07T06:27:13.630Z,98677.56
2022-10-07T06:29:43.345Z,98673.82
2022-10-07T06:32:11.313Z,98670.73
2022-10-07T06:34:40.101Z,98667.80
2022-10-07T06:37:08.030Z,98671.20
2022-10-07T06:39:35.957Z,98671.24
2022-10-07T06:42:03.965Z,98672.25
2022-10-07T06:45:08.460Z,98667.43
2022-10-07T06:47:37.118Z,98669.96
2022-10-07T06:50:05.907Z,98674.34
2022-10-07T06:52:37.901Z,98681.29
2022-10-07T06:55:08.260Z,98683.56
2022-10-07T06:57:52.142Z,98685.92
2022-10-07T07:00:20.879Z,98689.77
2022-10-07T07:02:49.197Z,98686.86
2022-10-07T07:05:17.697Z,98683.80
2022-10-07T07:07:46.859Z,98686.95
2022-10-07T07:10:15.369Z,98689.42
2022-10-07T07:12:46.395Z,98691.16
2022-10-07T07:15:15.099Z,98689.21
2022-10-07T07:17:43.664Z,98685.11
2022-10-07T07:20:12.777Z,98680.21
2022-10-07T07:22:41.877Z,98676.20
2022-10-07T07:25:10.455Z,98678.55
2022-10-07T07:27:39.139Z,98679.21
2022-10-07T07:30:08.753Z,98677.27
2022-10-07T07:32:36.793Z,98668.71
2022-10-07T07:35:05.776Z,98666.77
2022-10-07T07:37:34.090Z,98670.61
2022-10-07T07:40:02.263Z,98671.09
2022-10-07T07:42:31.577Z,98668.98
2022-10-07T07:45:00.763Z,98662.41
2022-10-07T07:47:28.835Z,98660.66
2022-10-07T07:49:57.114Z,98655.57
2022-10-07T07:52:29.692Z,98655.80
2022-10-07T07:54:59.289Z,98658.14
2022-10-07T07:57:29.205Z,98657.99
2022-10-07T07:59:58.860Z,98658.35
2022-10-07T08:02:27.965Z,98658.27
2022-10-07T08:04:56.044Z,98658.34
2022-10-07T08:07:24.885Z,98654.56
2022-10-07T08:09:52.834Z,98652.37
2022-10-07T08:12:22.307Z,98652.40
2022-10-07T08:14:52.272Z,98650.23
2022-10-07T08:17:22.262Z,98652.11
2022-10-07T08:19:51.076Z,98655.91
2022-10-07T08:22:19.438Z,98649.63
2022-10-07T08:24:49.471Z,98645.34
2022-10-07T08:27:18.773Z,98640.71
2022-10-07T08:29:46.780Z,98638.20
2022-10-07T08:32:14.612Z,98635.96
2022-10-07T08:34:43.030Z,98629.70
2022-10-07T08:37:11.060Z,98626.09
2022-10-07T08:39:39.001Z,98619.75
2022-10-07T08:42:29.742Z,98616.53
2022-10-07T08:44:57.885Z,98617.35
2022-10-07T08:47:35.195Z,98616.92
2022-10-07T08:50:16.683Z,98612.90
2022-10-07T08:52:52.542Z,98608.68
2022-10-07T08:55:49.791Z,98604.98
2022-10-07T08:59:00.873Z,98607.16
2022-10-07T09:01:29.509Z,98604.13
2022-10-07T09:04:12.777Z,98598.11
2022-10-07T09:07:04.049Z,98595.03
2022-10-07T09:09:41.082Z,98590.46
2022-10-07T09:12:17.019Z,98584.90
2022-10-07T09:14:48.372Z,98582.90
2022-10-07T09:17:41.369Z,98585.59
2022-10-07T09:20:18.024Z,98580.77
2022-10-07T09:22:57.471Z,98577.14
2022-10-07T09:25:28.400Z,98574.63
2022-10-07T09:27:57.402Z,98570.89
2022-10-07T09:30:28.231Z,98571.86
2022-10-07T09:32:58.298Z,98568.90
2022-10-07T09:35:29.908Z,98559.55
2022-10-07T09:38:01.146Z,98555.99
2022-10-07T09:40:37.563Z,98552.23
2022-10-07T09:43:14.150Z,98555.46
2022-10-07T09:45:47.095Z,98552.66
2022-10-07T09:48:22.337Z,98549.54
2022-10-07T09:50:50.313Z,98544.42
2022-10-07T09:53:26.052Z,98547.17
2022-10-07T09:55:55.475Z,98545.39
2022-10-07T09:58:28.551Z,98545.04
2022-10-07T10:01:03.038Z,98543.27
2022-10-07T10:03:38.097Z,98538.85
2022-10-07T10:06:08.894Z,98532.70
2022-10-07T10:08:40.103Z,98526.20
2022-10-07T10:11:28.654Z,98528.45
2022-10-07T10:13:56.722Z,98523.71
2022-10-07T10:16:24.793Z,98517.30
2022-10-07T10:19:02.803Z,98513.63
2022-10-07T10:21:40.185Z,98511.96
2022-10-07T10:24:14.604Z,98508.88
2022-10-07T10:27:03.788Z,98507.98
2022-10-07T10:29:43.494Z,98503.96
2022-10-07T10:32:32.433Z,98496.16
2022-10-07T10:35:27.739Z,98491.56
2022-10-07T10:38:38.354Z,98491.84
2022-10-07T10:41:30.796Z,98482.14
2022-10-07T10:44:48.230Z,98485.86
2022-10-07T10:47:44.051Z,98483.06
2022-10-07T10:50:31.062Z,98475.46
2022-10-07T10:53:09.122Z,98474.11
2022-10-07T10:55:43.593Z,98470.20
2022-10-07T10:58:30.303Z,98465.49
2022-10-07T11:01:18.432Z,98465.05
2022-10-07T11:04:11.282Z,98468.66
2022-10-07T11:06:44.696Z,98465.08
2022-10-07T11:09:38.622Z,98462.94
2022-10-07T11:12:26.335Z,98461.30
2022-10-07T11:15:02.588Z,98456.27
2022-10-07T11:17:36.252Z,98449.58
2022-10-07T11:20:27.897Z,98451.55
2022-10-07T11:23:00.676Z,98449.55
2022-10-07T11:25:43.169Z,98442.01
2022-10-07T11:28:21.785Z,98443.23
2022-10-07T11:31:11.506Z,98438.09
2022-10-07T11:33:47.260Z,98432.49
2022-10-07T11:36:21.661Z,98426.27
2022-10-07T11:38:52.889Z,98423.04
2022-10-07T11:41:26.808Z,98425.16
2022-10-07T11:43:58.855Z,98424.98
2022-10-07T11:46:40.095Z,98423.46
2022-10-07T11:49:11.203Z,98419.64
2022-10-07T11:52:05.225Z,98421.85
2022-10-07T11:54:53.043Z,98420.75
2022-10-07T11:57:24.574Z,98416.52
2022-10-07T12:00:02.306Z,98413.83
2022-10-07T12:02:46.538Z,98414.35
2022-10-07T12:05:47.871Z,98410.94
2022-10-07T12:08:32.289Z,98415.06
2022-10-07T12:11:12.587Z,98406.22
2022-10-07T12:13:43.939Z,98402.05
2022-10-07T12:16:24.240Z,98406.89
2022-10-07T12:19:07.559Z,98405.83
2022-10-07T12:22:00.381Z,98404.23
2022-10-07T12:24:33.465Z,98398.20
2022-10-07T12:27:23.553Z,98393.33
2022-10-07T12:30:02.772Z,98393.42
2022-10-07T12:32:42.906Z,98394.90
2022-10-07T12:35:37.126Z,98393.48
2022-10-07T12:38:17.862Z,98393.11
2022-10-07T12:40:57.951Z,98386.69
2022-10-07T12:43:29.800Z,98383.34
2022-10-07T12:45:59.696Z,98381.20
2022-10-07T12:48:40.299Z,98375.56
2022-10-07T12:51:19.422Z,98377.67
2022-10-07T12:53:50.476Z,98374.39
2022-10-07T12:56:23.023Z,98374.83
2022-10-07T12:59:18.093Z,98372.92
2022-10-07T13:02:18.757Z,98369.75
2022-10-07T13:04:58.949Z,98369.64
2022-10-07T13:07:50.151Z,98365.10
2022-10-07T13:10:27.132Z,98358.42
2022-10-07T13:13:06.900Z,98358.94
2022-10-07T13:16:10.234Z,98353.33
2022-10-07T13:18:48.078Z,98351.42
2022-10-07T13:21:24.547Z,98344.54
2022-10-07T13:23:54.372Z,98343.27
2022-10-07T13:26:24.069Z,98343.19
2022-10-07T13:29:01.270Z,98340.50
2022-10-07T13:31:31.636Z,98338.18
2022-10-07T13:34:14.194Z,98337.20
2022-10-07T13:36:46.258Z,98334.98
2022-10-07T13:39:21.855Z,98332.95
2022-10-07T13:41:55.897Z,98331.63
2022-10-07T13:44:28.514Z,98329.17
2022-10-07T13:47:01.540Z,98328.10
2022-10-07T13:49:33.449Z,98321.83
2022-10-07T13:52:05.615Z,98318.44
2022-10-07T13:54:34.506Z,98317.59
2022-10-07T13:57:02.988Z,98316.50
2022-10-07T13:59:36.706Z,98315.86
2022-10-07T14:02:08.134Z,98313.70
2022-10-07T14:04:49.632Z,98312.84
2022-10-07T14:07:21.227Z,98310.48
2022-10-07T14:09:56.531Z,98305.75
2022-10-07T14:12:32.906Z,98306.44
2022-10-07T14:15:23.240Z,98306.66
2022-10-07T14:17:55.459Z,98305.98
2022-10-07T14:20:31.536Z,98308.19
2022-10-07T14:23:06.044Z,98305.40
2022-10-07T14:25:55.316Z,98300.64
2022-10-07T14:28:23.496Z,98301.35
2022-10-07T14:31:39.192Z,98303.48
2022-10-07T14:34:37.468Z,98303.34
2022-10-07T14:37:28.325Z,98305.92
2022-10-07T14:39:59.024Z,98307.64
2022-10-07T14:42:36.320Z,98307.55
2022-10-07T14:45:09.619Z,98306.77
2022-10-07T14:47:41.654Z,98305.87
2022-10-07T14:50:10.592Z,98305.46
2022-10-07T14:52:46.184Z,98301.20
2022-10-07T14:55:20.717Z,98300.02
2022-10-07T14:57:48.995Z,98302.02
2022-10-07T15:00:20.327Z,98301.83
2022-10-07T15:02:53.349Z,98302.65
2022-10-07T15:05:23.075Z,98305.06
2022-10-07T15:07:51.342Z,98301.34
2022-10-07T15:10:22.313Z,98305.65
2022-10-07T15:12:50.448Z,98304.78
2022-10-07T15:15:19.448Z,98302.69
2022-10-07T15:17:48.226Z,98302.38
2022-10-07T15:20:17.630Z,98300.98
2022-10-07T15:22:46.137Z,98302.14
2022-10-07T15:25:15.509Z,98299.60
2022-10-07T15:27:44.612Z,98299.00
2022-10-07T15:30:13.314Z,98296.20
2022-10-07T15:32:41.700Z,98292.77
2022-10-07T15:35:10.058Z,98291.27
2022-10-07T15:37:38.128Z,98287.41
2022-10-07T15:40:07.782Z,98291.59
2022-10-07T15:42:35.889Z,98293.24
2022-10-07T15:45:04.032Z,98292.33
2022-10-07T15:47:34.616Z,98294.11
2022-10-07T15:50:02.602Z,98294.68
2022-10-07T15:52:30.682Z,98294.30
2022-10-07T15:54:59.997Z,98292.11
2022-10-07T15:57:29.564Z,98289.58
2022-10-07T15:59:57.610Z,98286.09
2022-10-07T16:02:25.561Z,98285.63
2022-10-07T16:04:53.474Z,98284.98
2022-10-07T16:07:21.788Z,98285.48
2022-10-07T16:09:49.751Z,98286.86
2022-10-07T16:12:18.357Z,98286.43
2022-10-07T16:14:47.532Z,98284.54
2022-10-07T16:17:15.645Z,98285.85
2022-10-07T16:19:44.478Z,98287.94
2022-10-07T16:22:12.465Z,98285.83
2022-10-07T16:24:42.375Z,98287.27
2022-10-07T16:27:10.451Z,98289.30
2022-10-07T16:29:56.827Z,98286.27
2022-10-07T16:32:24.940Z,98292.25
2022-10-07T16:34:52.892Z,98297.87
2022-10-07T16:37:20.776Z,98297.13
2022-10-07T16:39:48.700Z,98296.80
2022-10-07T16:42:16.650Z,98296.25
2022-10-07T16:44:49.886Z,98296.28
2022-10-07T16:47:18.607Z,98290.27
2022-10-07T16:49:46.552Z,98292.87
2022-10-07T16:52:14.472Z,98292.39
2022-10-07T16:54:43.306Z,98292.48
2022-10-07T16:57:11.679Z,98290.45
2022-10-07T16:59:39.840Z,98289.25
2022-10-07T17:02:08.606Z,98289.15
2022-10-07T17:04:36.428Z,98285.35
2022-10-07T17:07:06.016Z,98287.39
2022-10-07T17:09:34.086Z,98290.46
2022-10-07T17:12:02.263Z,98291.23
2022-10-07T17:14:32.075Z,98290.34
2022-10-07T17:17:00.979Z,98290.79
2022-10-07T17:19:29.207Z,98288.02
2022-10-07T17:21:59.592Z,98288.01
2022-10-07T17:24:27.554Z,98288.88
2022-10-07T17:26:56.339Z,98285.80
2022-10-07T17:29:29.726Z,98286.44
2022-10-07T17:31:57.585Z,98286.55
2022-10-07T17:34:25.662Z,98285.15
2022-10-07T17:36:54.367Z,98285.57
2022-10-07T17:39:22.498Z,98286.08
2022-10-07T17:41:50.364Z,98287.23
2022-10-07T17:44:18.642Z,98287.91
2022-10-07T17:46:49.203Z,98287.99
2022-10-07T17:49:17.370Z,98285.16
2022-10-07T17:51:45.543Z,98284.63
2022-10-07T17:54:15.157Z,98282.88
2022-10-07T17:56:44.669Z,98280.26
2022-10-07T17:59:12.935Z,98280.44
2022-10-07T18:01:41.723Z,98277.91
2022-10-07T18:04:13.565Z,98278.13
2022-10-07T18:06:46.996Z,98277.45
2022-10-07T18:09:18.647Z,98279.37
2022-10-07T18:12:05.223Z,98280.44
2022-10-07T18:14:53.979Z,98279.34
2022-10-07T18:17:24.702Z,98280.03
2022-10-07T18:19:53.267Z,98281.53
2022-10-07T18:22:21.902Z,98277.65
2022-10-07T18:24:50.198Z,98277.39
2022-10-07T18:27:18.335Z,98281.48
2022-10-07T18:29:46.493Z,98281.82
2022-10-07T18:32:14.561Z,98282.77
2022-10-07T18:34:42.734Z,98280.89
2022-10-07T18:37:10.974Z,98277.79
2022-10-07T18:39:39.303Z,98276.31
2022-10-07T18:42:07.550Z,98277.61
2022-10-07T18:44:35.824Z,98281.51
2022-10-07T18:47:03.911Z,98279.29
2022-10-07T18:49:31.877Z,98277.52
2022-10-07T18:52:01.797Z,98277.55
2022-10-07T18:54:29.656Z,98276.01
2022-10-07T18:56:57.732Z,98275.67
2022-10-07T18:59:25.809Z,98281.19
2022-10-07T19:01:54.125Z,98282.09
2022-10-07T19:04:22.255Z,98283.17
2022-10-07T19:06:50.531Z,98285.13
2022-10-07T19:09:20.765Z,98284.02
2022-10-07T19:11:49.477Z,98284.69
2022-10-07T19:14:17.735Z,98284.63
2022-10-07T19:16:49.397Z,98285.95
2022-10-07T19:19:22.904Z,98287.58
2022-10-07T19:21:55.302Z,98289.05
2022-10-07T19:24:43.831Z,98291.80
2022-10-07T19:27:12.389Z,98296.23
2022-10-07T19:29:40.317Z,98295.98
2022-10-07T19:32:09.111Z,98294.80
2022-10-07T19:34:37.345Z,98293.55
2022-10-07T19:37:06.709Z,98294.52
2022-10-07T19:39:34.824Z,98294.99
2022-10-07T19:42:04.087Z,98296.97
2022-10-07T19:44:33.676Z,98292.23
2022-10-07T19:47:01.767Z,98290.55
2022-10-07T19:49:29.840Z,98291.94
2022-10-07T19:51:57.752Z,98289.01
2022-10-07T19:54:25.777Z,98289.20
2022-10-07T19:56:53.864Z,98291.89
2022-10-07T19:59:22.424Z,98292.86
2022-10-07T20:01:52.115Z,98294.69
2022-10-07T20:04:21.089Z,98292.32
2022-10-07T20:06:49.235Z,98290.30
2022-10-07T20:09:19.381Z,98292.52
2022-10-07T20:11:47.939Z,98294.05
2022-10-07T20:14:16.268Z,98287.88
2022-10-07T20:16:44.854Z,98288.23
2022-10-07T20:19:15.869Z,98283.43
2022-10-07T20:21:45.433Z,98281.20
2022-10-07T20:24:15.361Z,98283.52
2022-10-07T20:26:44.454Z,98283.13
2022-10-07T20:29:15.410Z,98285.33
2022-10-07T20:31:44.856Z,98283.35
2022-10-07T20:34:15.720Z,98284.15
2022-10-07T20:36:44.310Z,98284.90
2022-10-07T20:39:35.656Z,98283.05
2022-10-07T20:42:28.899Z,98284.16
2022-10-07T20:45:00.187Z,98281.94
2022-10-07T20:47:33.766Z,98283.74
2022-10-07T20:50:02.962Z,98283.77
2022-10-07T20:52:34.802Z,98282.07
2022-10-07T20:55:03.183Z,98283.49
2022-10-07T20:57:38.126Z,98280.19
2022-10-07T21:00:10.370Z,98277.53
2022-10-07T21:02:38.498Z,98274.75
2022-10-07T21:05:08.166Z,98274.17
2022-10-07T21:07:36.037Z,98274.95
2022-10-07T21:10:04.630Z,98273.90
2022-10-07T21:12:32.693Z,98272.64
2022-10-07T21:15:01.284Z,98271.16
2022-10-07T21:17:29.353Z,98270.43
2022-10-07T21:19:57.492Z,98270.42
2022-10-07T21:22:25.679Z,98273.42
2022-10-07T21:24:53.871Z,98272.85
2022-10-07T21:27:21.948Z,98270.50
2022-10-07T21:29:50.410Z,98266.85
2022-10-07T21:32:18.818Z,98265.80
2022-10-07T21:34:46.775Z,98260.86
2022-10-07T21:37:14.791Z,98259.58
2022-10-07T21:39:43.223Z,98258.27
2022-10-07T21:42:11.398Z,98257.79
2022-10-07T21:44:39.286Z,98253.50
2022-10-07T21:47:07.456Z,98245.84
2022-10-07T21:49:35.361Z,98243.88
2022-10-07T21:52:03.295Z,98244.22
2022-10-07T21:54:31.266Z,98247.74
2022-10-07T21:56:59.215Z,98248.09
2022-10-07T21:59:27.294Z,98245.30
2022-10-07T22:01:55.563Z,98246.91
2022-10-07T22:04:24.521Z,98247.85
2022-10-07T22:07:10.955Z,98247.27
2022-10-07T22:09:38.929Z,98243.09
2022-10-07T22:12:07.096Z,98241.98
2022-10-07T22:14:35.260Z,98239.08
2022-10-07T22:17:03.845Z,98239.64
2022-10-07T22:19:31.829Z,98239.01
2022-10-07T22:22:00.111Z,98237.34
2022-10-07T22:24:28.278Z,98236.98
2022-10-07T22:26:56.660Z,98234.89
2022-10-07T22:29:25.277Z,98228.72
2022-10-07T22:31:54.032Z,98222.10
2022-10-07T22:34:42.923Z,98225.95
2022-10-07T22:37:10.860Z,98223.34
2022-10-07T22:39:38.934Z,98220.77
2022-10-07T22:42:07.007Z,98218.75
2022-10-07T22:44:35.077Z,98215.96
2022-10-07T22:47:03.153Z,98214.66
2022-10-07T22:49:31.221Z,98209.63
2022-10-07T22:52:00.313Z,98209.63
2022-10-07T22:54:28.513Z,98209.79
2022-10-07T22:56:56.664Z,98204.86
2022-10-07T22:59:24.735Z,98202.80
2022-10-07T23:01:53.219Z,98199.81
2022-10-07T23:04:21.774Z,98198.75
2022-10-07T23:06:50.087Z,98201.63
2022-10-07T23:09:18.363Z,98202.02
2022-10-07T23:11:46.764Z,98198.64
2022-10-07T23:14:15.013Z,98194.29
2022-10-07T23:16:44.839Z,98198.19
2022-10-07T23:19:13.204Z,98200.84
2022-10-07T23:21:41.218Z,98200.91
2022-10-07T23:24:10.480Z,98199.26
2022-10-07T23:26:38.875Z,98200.66
2022-10-07T23:29:07.815Z,98200.20
2022-10-07T23:31:36.157Z,98198.38
2022-10-07T23:34:06.553Z,98198.01
2022-10-07T23:36:34.952Z,98198.13
2022-10-07T23:39:03.616Z,98197.40
2022-10-07T23:41:32.509Z,98198.02
2022-10-07T23:44:04.777Z,98200.66
2022-10-07T23:46:35.792Z,98197.87
2022-10-07T23:49:04.938Z,98194.88
2022-10-07T23:51:34.013Z,98191.77
2022-10-07T23:54:03.925Z,98192.96
2022-10-07T23:56:33.205Z,98187.48
2022-10-07T23:59:02.161Z,98183.98
